Terminal Aerodrome Forecast
Issued by NWS Sioux Falls, SD

Home | Current Version | Previous Version | Graphics & Text | Print | Product List | Glossary On
Versions: 1 2 3 4 5 6 7 8 9 10 11 12 13 14 15 16 17 18 19 20 21 22 23 24 25 26 27 28 29 30 31 32 33 34
000
FTUS43 KFSD 102203 AAB
TAFSUX
TAF AMD
KSUX 102203Z 1022/1118 08009KT P6SM SCT015 BKN050
     FM110100 07007KT P6SM BKN020 OVC050
     FM110500 06006KT P6SM SCT020 OVC040
     FM111100 10003KT P6SM OVC015
     FM111600 14004KT P6SM OVC015=

USA.gov is the U.S. government's official web portal to all federal, state and local government web resources and services.